Dauphin Barker Airport
CYDN : rendu visible

Aérodrome :











RETROUVEZ-NOUS SUR...

 
LOGIN :

S'inscrire | Disclaimer

   EN    FR    IT 

 









Légende :    VFR   VFR Marginal   IFR   IFR Intensif   IFR Très Intensif
Visi : 
Plafond : 
>= 8 km
>= 3000ft
5 à 8 km
1000 à 3000 ft
1500m à 5 km
500 à 1000 ft
800 à 1500m
200 à 500 ft
< 800m
< 200 ft
Symboles :   Orages  Brouillard  Fortes neiges  Fortes précipitations  Vent > 20 kt






- Altitude de l'aérodrome : 999 ft
- Code IATA : YDN


CYDN - Dauphin Barker

DERNIER METAR :
  • 301600Z AUTO 06006KT 9SM FEW130 07/01 A3000 RMK SLP176

METARs EXPIRÉS :
  • 301400Z AUTO 01003KT 330V040 9SM FEW090 BKN110 BKN130 01/M01 A3003 RMK SLP187

TAF TAF CYDN
Valide du 30 à 12h jusqu'au 31 à 00h UTC


301138Z 3012/3024 VRB03KT P6SM SCT120 BKN240
BECMG 3014/3016 16014KT
BECMG 3018/3020 20018KT RMK FCST BASED ON AUTO OBS. NXT FCST BY 301800Z



MET'MAP, la Météo Aéronautique d'un coup d'oeil ! - Copyright ORBIFLY Décembre 2007 - Disclaimer

ORBIFLY MET'MAP TEAM :

Programmation & Développement : Alexandra Zaïnal
Sur une idée originale de : Baudouin d'Aumeries
Assistance à la programmation : Marc-Olivier Méhu
Soutien technique & logistique : Manuel Goepfert

Contact : metmap@orbifly.com




SOURCES & CREDITS :

   NOAA       Earth
Advisory